Huvudsida
METAR-TAF:

METAR-TAF

Flygplatser :

N'Djamena, Tchad

latitud: 12-08N, longitud: 015-02E, höjd: 295 m

Aktuellt väderrapport

Denna rapport gjordes för 55 minuter sedan, klockan 09:00 UTC
Vind 8 kt från syd/sydväst, varierande mellan syd/sydväst och väst
Temperatur 27°C
Fuktighet 74%
Tryck 1012 hPa
Sikt 10 km eller mer
Inga moln under 1 500 m eller inga cumulonimbus

METAR: FTTJ 190900Z 21008KT 210V270 CAVOK 27/22 Q1012 NOSIG

Tid: 10:55 (09:55 UTC)

Väderprognos

Denna rapport gjordes för 4 timmar och 55 minuter sedan, klockan 05:00 UTC
Prognos gäller från 19 kl. 06 UTC till 20 kl. 12 UTC
Vind 6 kt från syd/sydväst
Sikt 10 km eller mer
Få moln på en höjd av 2600 ft
Temporärt
från 19 kl. 12 UTC till 19 kl. 18 UTC
Sikt: 4000 m
åska, regn
Sannolikhet 30% :
Temporärt
från 20 kl. 04 UTC till 20 kl. 10 UTC
Sikt: 3000 m
åska, regn

TAF: FTTJ 190500Z 1906/2012 21006KT 9999 FEW026 TEMPO 1912/1918 4000 TSRA PROB30 TEMPO 2004/2010 3000 TSRA

Aktuella väderrapporter och prognoser från 4000 flygplatser (METAR- och TAF-rapporter).

De tillgängliga stationerna syns som gula och röda prickar på kartan.

För musen över prickarna för att se namnen på stationerna.

Klicka sedan för att få väderrapporter och prognoser.

För att ändra kartan: Klicka på de gröna knapparna med ett svart kors på för att zooma in; den gröna knappen med ett streck på för att zooma ut; eller på de gröna pilarna för angränsande kartor.


METAR-TAF: